Time;durP1;ratioP1;P1;durP2;ratioP2;P2;SDS_P1;SDS_P2;PMS_P1;PMS_P2;Temp;Humidity;BMP_temperature;BMP_pressure;BME280_temperature;BME280_humidity;BME280_pressure;Samples;Min_cycle;Max_cycle;Signal;HPM_P1;HPM_P2
2023/08/10 00:05:01;;;;;;;3.13;1.70;;;;;;;13.37;63.51;100326.38;10482078;28;20048;-60
2023/08/10 00:10:08;;;;;;;1.83;1.40;;;;;;;13.45;63.52;100326.78;10482701;28;20045;-57
2023/08/10 00:15:10;;;;;;;3.13;2.15;;;;;;;13.34;63.28;100328.34;10482274;28;20186;-59
2023/08/10 00:20:12;;;;;;;3.97;1.60;;;;;;;13.08;64.09;100337.06;10482796;28;20044;-59
2023/08/10 00:25:14;;;;;;;6.63;1.92;;;;;;;13.14;63.85;100349.81;10463264;28;20431;-59
2023/08/10 00:30:16;;;;;;;3.08;1.75;;;;;;;13.32;64.11;100351.25;10463643;28;20056;-59
2023/08/10 00:35:18;;;;;;;2.58;1.50;;;;;;;13.56;63.74;100353.19;10463034;28;20134;-59
2023/08/10 00:40:21;;;;;;;2.95;1.63;;;;;;;13.77;63.34;100333.38;10495894;28;20382;-59
2023/08/10 00:45:24;;;;;;;3.40;1.60;;;;;;;13.76;63.33;100323.78;10445666;28;20595;-59
2023/08/10 00:50:27;;;;;;;1.85;1.35;;;;;;;13.74;63.29;100320.41;10462533;28;20049;-59
2023/08/10 00:55:29;;;;;;;3.38;1.77;;;;;;;13.56;63.44;100326.91;10461958;28;20081;-59
2023/08/10 01:00:31;;;;;;;3.85;2.10;;;;;;;13.60;63.64;100327.53;10462037;28;20575;-59
2023/08/10 01:05:43;;;;;;;3.33;1.63;;;;;;;13.61;63.52;100334.47;10479781;28;20208;-58
2023/08/10 01:11:13;;;;;;;4.45;2.55;;;;;;;13.61;63.88;100345.84;10463383;28;20086;-59
2023/08/10 01:16:16;;;;;;;3.75;1.73;;;;;;;13.58;63.33;100351.28;10461175;28;20109;-59
2023/08/10 01:21:29;;;;;;;3.45;1.70;;;;;;;13.52;63.94;100353.47;10460849;28;20067;-59
2023/08/10 01:26:31;;;;;;;4.50;1.33;;;;;;;13.54;63.54;100362.94;10460133;28;20539;-59
2023/08/10 01:31:34;;;;;;;7.85;1.40;;;;;;;13.48;63.34;100376.47;10477364;28;20127;-59
2023/08/10 01:36:36;;;;;;;2.88;1.65;;;;;;;13.48;63.63;100379.09;10460251;28;20052;-59
2023/08/10 01:41:38;;;;;;;2.33;1.55;;;;;;;13.55;63.74;100369.06;10494440;28;20051;-59
2023/08/10 01:46:42;;;;;;;3.15;1.73;;;;;;;13.57;63.48;100375.91;10478120;28;20044;-59
2023/08/10 01:51:47;;;;;;;4.53;1.70;;;;;;;13.59;63.38;100381.03;10478153;28;20072;-60
2023/08/10 01:56:49;;;;;;;2.72;1.77;;;;;;;13.59;63.49;100368.75;10459373;28;20048;-60
2023/08/10 02:01:52;;;;;;;2.67;1.40;;;;;;;13.53;63.46;100368.31;10443472;28;20051;-59
2023/08/10 02:06:54;;;;;;;4.32;1.92;;;;;;;13.50;63.63;100369.34;10476914;28;20044;-59
2023/08/10 02:11:56;;;;;;;2.40;1.50;;;;;;;13.53;63.56;100365.69;10492959;28;20500;-59
2023/08/10 02:16:58;;;;;;;2.72;1.50;;;;;;;13.46;63.79;100372.25;10477172;28;20047;-59
2023/08/10 02:22:00;;;;;;;3.22;1.63;;;;;;;13.42;63.62;100368.13;10459067;28;20147;-59
2023/08/10 02:27:02;;;;;;;2.33;1.45;;;;;;;13.20;63.78;100360.78;10476485;28;20928;-59
2023/08/10 02:32:05;;;;;;;1.67;1.35;;;;;;;13.02;64.34;100361.09;10476657;28;20439;-59
2023/08/10 02:37:08;;;;;;;3.10;1.48;;;;;;;12.93;64.43;100363.34;10476212;28;20051;-58
2023/08/10 02:42:10;;;;;;;3.17;1.80;;;;;;;13.01;64.46;100359.38;10476333;28;20056;-59
2023/08/10 02:47:12;;;;;;;2.70;1.48;;;;;;;12.90;64.50;100355.66;10476538;28;20072;-59
2023/08/10 02:52:15;;;;;;;3.15;1.92;;;;;;;12.97;64.49;100361.38;10458224;28;20055;-59
2023/08/10 02:57:17;;;;;;;2.08;1.50;;;;;;;13.06;64.55;100362.59;10475770;28;20044;-59
2023/08/10 03:02:20;;;;;;;2.53;1.52;;;;;;;13.09;64.44;100362.41;10491111;28;20064;-60
2023/08/10 03:07:23;;;;;;;3.80;1.70;;;;;;;13.05;64.36;100364.34;10490739;28;20052;-59
2023/08/10 03:12:25;;;;;;;2.25;1.50;;;;;;;13.09;64.41;100352.72;10457181;28;20412;-59
2023/08/10 03:17:28;;;;;;;4.75;1.77;;;;;;;13.05;64.38;100351.22;10460279;28;20052;-59
2023/08/10 03:22:30;;;;;;;1.70;1.30;;;;;;;12.94;64.73;100357.16;10484069;28;20060;-59
2023/08/10 03:27:32;;;;;;;3.22;1.90;;;;;;;12.87;64.61;100360.25;10484653;28;20254;-59
2023/08/10 03:32:35;;;;;;;3.85;1.40;;;;;;;12.87;64.75;100369.00;10499505;28;20465;-59
2023/08/10 03:37:37;;;;;;;3.22;1.60;;;;;;;13.08;64.66;100371.22;10483311;28;20049;-59
2023/08/10 03:42:39;;;;;;;2.05;1.40;;;;;;;13.17;64.65;100370.63;10465093;28;20056;-58
2023/08/10 03:47:42;;;;;;;2.33;1.45;;;;;;;13.24;64.58;100371.91;10464506;28;20044;-58
2023/08/10 03:52:44;;;;;;;2.60;1.50;;;;;;;13.22;64.45;100381.69;10482888;28;20041;-59
2023/08/10 03:57:47;;;;;;;3.25;1.65;;;;;;;13.24;64.67;100378.03;10482755;28;20071;-58
2023/08/10 04:02:49;;;;;;;2.40;1.50;;;;;;;13.20;64.46;100381.78;10464473;28;20117;-58
2023/08/10 04:07:54;;;;;;;5.97;1.60;;;;;;;13.22;64.43;100381.69;10464002;28;20040;-59
2023/08/10 04:12:56;;;;;;;2.95;1.50;;;;;;;13.28;64.35;100390.03;10463940;28;20131;-59
2023/08/10 04:17:58;;;;;;;2.78;1.48;;;;;;;13.20;64.39;100394.06;10482280;28;20041;-59
2023/08/10 04:23:00;;;;;;;2.50;1.50;;;;;;;13.11;64.96;100402.53;10463270;28;20850;-58
2023/08/10 04:28:03;;;;;;;1.70;1.33;;;;;;;13.26;64.87;100405.03;10482244;28;20044;-58
2023/08/10 04:33:05;;;;;;;4.97;1.73;;;;;;;13.29;64.85;100411.88;10482034;28;20449;-59
2023/08/10 04:38:07;;;;;;;2.70;1.75;;;;;;;13.42;64.57;100404.91;10481465;28;20041;-59
2023/08/10 04:43:09;;;;;;;3.38;1.77;;;;;;;13.52;64.54;100413.91;10481861;28;20092;-59
2023/08/10 04:48:13;;;;;;;2.80;1.70;;;;;;;13.54;64.34;100417.28;10480992;28;20064;-59
2023/08/10 04:53:15;;;;;;;1.95;1.40;;;;;;;13.68;64.30;100415.44;10480303;28;20400;-59
2023/08/10 04:58:17;;;;;;;2.50;1.50;;;;;;;13.70;64.10;100424.06;10480431;28;20503;-59
2023/08/10 05:03:20;;;;;;;2.10;1.42;;;;;;;13.83;63.96;100423.28;10480064;28;20420;-59
2023/08/10 05:08:24;;;;;;;2.45;1.50;;;;;;;14.03;63.59;100423.66;10480147;28;20045;-59
2023/08/10 05:13:26;;;;;;;1.85;1.30;;;;;;;14.33;62.99;100424.25;10480272;28;20090;-59
2023/08/10 05:18:28;;;;;;;2.55;1.60;;;;;;;14.63;62.50;100418.72;10480011;28;20138;-60
2023/08/10 05:23:30;;;;;;;2.40;1.30;;;;;;;14.88;62.26;100416.06;10479593;28;20067;-60
2023/08/10 05:28:32;;;;;;;2.28;1.40;;;;;;;15.27;61.74;100422.94;10479134;28;20048;-60
2023/08/10 05:33:35;;;;;;;1.92;1.48;;;;;;;15.44;61.14;100425.22;10460251;28;20127;-60
2023/08/10 05:38:39;;;;;;;2.38;1.45;;;;;;;15.33;61.08;100433.06;10478710;28;20449;-60
2023/08/10 05:43:41;;;;;;;2.85;1.63;;;;;;;15.17;61.79;100437.72;10460130;28;20040;-59
2023/08/10 05:48:44;;;;;;;5.15;1.42;;;;;;;15.16;61.99;100438.69;10460812;28;20058;-58
2023/08/10 05:53:47;;;;;;;5.80;1.73;;;;;;;15.33;61.67;100436.53;10478082;28;20500;-59
2023/08/10 05:58:49;;;;;;;3.50;1.73;;;;;;;15.34;61.37;100434.75;10460130;28;20693;-60
2023/08/10 06:03:52;;;;;;;9.30;1.65;;;;;;;15.47;61.26;100438.19;10477761;28;20048;-59
2023/08/10 06:08:54;;;;;;;2.30;1.50;;;;;;;15.47;61.18;100435.53;10477291;28;20558;-59
2023/08/10 06:13:56;;;;;;;3.78;1.48;;;;;;;15.73;60.97;100436.34;10459727;28;20048;-59
2023/08/10 06:18:59;;;;;;;2.17;1.40;;;;;;;15.96;60.90;100438.97;10477711;28;20307;-59
2023/08/10 06:24:02;;;;;;;2.30;1.35;;;;;;;16.12;60.49;100441.31;10476686;28;20048;-60
2023/08/10 06:29:04;;;;;;;2.40;1.70;;;;;;;16.46;59.99;100440.50;10476999;28;20036;-60
2023/08/10 06:34:08;;;;;;;3.05;1.50;;;;;;;16.99;59.14;100437.22;10476126;28;20072;-60
2023/08/10 06:39:10;;;;;;;2.20;1.50;;;;;;;17.60;57.91;100430.56;10458588;28;20048;-59
2023/08/10 06:44:12;;;;;;;5.13;1.63;;;;;;;18.05;56.95;100431.25;10476213;28;20048;-60
2023/08/10 06:49:16;;;;;;;4.47;1.63;;;;;;;18.45;55.95;100432.25;10475956;28;20066;-60
2023/08/10 06:54:20;;;;;;;4.85;1.58;;;;;;;18.56;55.40;100434.00;10457938;28;20048;-58
2023/08/10 06:59:22;;;;;;;3.40;1.98;;;;;;;18.49;55.14;100433.69;10458137;28;20064;-60
2023/08/10 07:04:25;;;;;;;2.92;1.52;;;;;;;18.83;54.85;100438.75;10475791;28;20130;-60
2023/08/10 07:09:27;;;;;;;2.80;1.30;;;;;;;18.84;54.31;100445.72;10475847;28;20055;-59
2023/08/10 07:14:30;;;;;;;1.77;1.08;;;;;;;18.72;54.22;100442.31;10474750;28;20086;-60
2023/08/10 07:19:32;;;;;;;2.65;1.40;;;;;;;18.52;54.09;100459.06;10457355;28;20074;-59
2023/08/10 07:24:34;;;;;;;3.97;1.45;;;;;;;18.28;54.15;100455.84;10489342;28;20131;-59
2023/08/10 07:29:36;;;;;;;2.38;1.33;;;;;;;18.53;54.15;100456.28;10475231;28;20131;-59
2023/08/10 07:34:38;;;;;;;1.75;1.10;;;;;;;18.77;53.91;100463.16;10473532;28;20175;-60
2023/08/10 07:39:40;;;;;;;1.80;1.30;;;;;;;19.06;53.31;100459.69;10475439;28;20049;-59
2023/08/10 07:44:43;;;;;;;3.33;1.85;;;;;;;19.89;52.33;100460.22;10474802;28;20135;-59
2023/08/10 07:49:46;;;;;;;3.85;1.45;;;;;;;21.27;48.64;100452.59;10474949;28;20310;-60
2023/08/10 07:54:49;;;;;;;1.85;1.20;;;;;;;21.77;48.43;100451.22;10474567;28;20044;-59
2023/08/10 07:59:51;;;;;;;4.15;1.20;;;;;;;22.37;47.09;100447.00;10474175;28;20044;-60
2023/08/10 08:04:53;;;;;;;2.15;1.10;;;;;;;22.92;44.85;100442.22;10479694;28;20044;-60
2023/08/10 08:09:55;;;;;;;2.97;1.50;;;;;;;23.46;44.57;100431.16;10482211;28;20416;-60
2023/08/10 08:14:57;;;;;;;3.28;1.45;;;;;;;23.09;43.82;100430.63;10481841;28;20036;-59
2023/08/10 08:19:59;;;;;;;2.90;1.40;;;;;;;23.10;43.26;100424.31;10463714;28;20036;-60
2023/08/10 08:25:01;;;;;;;4.47;1.20;;;;;;;23.96;43.06;100426.59;10481551;28;20586;-60
2023/08/10 08:30:04;;;;;;;2.90;1.30;;;;;;;24.50;41.71;100426.97;10496714;28;20468;-59
2023/08/10 08:35:06;;;;;;;1.38;0.98;;;;;;;24.64;40.36;100410.22;10481715;28;20056;-60
2023/08/10 08:40:08;;;;;;;1.00;0.75;;;;;;;24.39;38.65;100405.94;10480949;28;20047;-60
2023/08/10 08:45:11;;;;;;;1.95;0.95;;;;;;;24.55;38.71;100417.41;10480816;28;20584;-59
2023/08/10 08:50:15;;;;;;;9.30;1.67;;;;;;;24.87;38.21;100387.13;10481353;28;20044;-60
2023/08/10 08:55:17;;;;;;;3.25;1.23;;;;;;;24.84;38.53;100398.16;10462526;28;20052;-60
2023/08/10 09:00:19;;;;;;;1.35;0.95;;;;;;;24.97;38.08;100387.75;10480626;28;20079;-60
2023/08/10 09:05:21;;;;;;;2.72;0.90;;;;;;;24.61;37.87;100381.16;10480831;28;20053;-60
2023/08/10 09:10:23;;;;;;;2.13;1.02;;;;;;;24.60;38.18;100374.13;10480017;28;20508;-60
2023/08/10 09:15:27;;;;;;;2.47;1.10;;;;;;;24.83;37.75;100375.09;10478331;28;20544;-60
2023/08/10 09:20:29;;;;;;;1.75;0.88;;;;;;;24.95;37.06;100368.38;10461710;28;20400;-60
2023/08/10 09:25:39;;;;;;;1.52;1.10;;;;;;;24.84;37.02;100366.06;10479087;28;20401;-60
2023/08/10 09:30:48;;;;;;;2.08;0.98;;;;;;;25.23;35.90;100366.91;10479258;28;20546;-60
2023/08/10 09:35:58;;;;;;;2.80;1.10;;;;;;;24.83;36.58;100367.06;10478540;28;20153;-60
2023/08/10 09:41:15;;;;;;;0.98;0.80;;;;;;;24.86;35.06;100366.72;10478302;28;20060;-59
2023/08/10 09:46:18;;;;;;;1.70;1.10;;;;;;;24.87;36.47;100361.22;10478129;28;20088;-60
2023/08/10 09:51:20;;;;;;;1.90;1.00;;;;;;;24.75;36.72;100359.06;10478519;28;20451;-59
2023/08/10 09:56:22;;;;;;;2.80;1.17;;;;;;;24.69;36.83;100360.56;10477672;28;20048;-59
2023/08/10 10:01:24;;;;;;;1.20;0.90;;;;;;;25.07;36.52;100354.44;10478072;28;20500;-60
2023/08/10 10:06:27;;;;;;;2.03;1.30;;;;;;;25.18;36.01;100357.72;10477243;28;20131;-60
2023/08/10 10:11:31;;;;;;;1.63;0.90;;;;;;;25.10;35.34;100355.94;10477690;28;20052;-60
2023/08/10 10:16:35;;;;;;;3.47;1.00;;;;;;;24.96;34.78;100353.97;10477116;28;20576;-59
2023/08/10 10:21:38;;;;;;;2.92;1.15;;;;;;;24.93;35.17;100344.47;10476734;28;20056;-59
2023/08/10 10:26:57;;;;;;;2.47;1.08;;;;;;;24.48;33.69;100354.09;10476335;28;20099;-59
2023/08/10 10:32:14;;;;;;;2.33;1.23;;;;;;;24.31;34.62;100333.75;10476608;28;20446;-59
2023/08/10 10:37:29;;;;;;;1.25;0.90;;;;;;;24.11;34.89;100336.78;10492128;28;20102;-59
2023/08/10 10:42:31;;;;;;;3.25;1.00;;;;;;;24.19;35.43;100336.78;10491981;28;20083;-59
2023/08/10 10:47:38;;;;;;;2.63;1.30;;;;;;;24.53;34.91;100333.03;10457985;28;20048;-59
2023/08/10 10:52:40;;;;;;;2.15;1.10;;;;;;;24.04;34.86;100338.41;10475712;28;20651;-59
2023/08/10 10:57:46;;;;;;;1.75;1.05;;;;;;;23.96;34.51;100326.91;10473365;28;20635;-59
2023/08/10 11:02:49;;;;;;;0.80;0.63;;;;;;;23.59;34.77;100330.06;10457086;28;20453;-59
2023/08/10 11:07:52;;;;;;;1.55;0.80;;;;;;;23.52;34.63;100331.72;10476461;28;20032;-59
2023/08/10 11:12:54;;;;;;;2.75;0.77;;;;;;;23.36;35.06;100335.19;10475603;28;20094;-59
2023/08/10 11:17:58;;;;;;;1.40;0.88;;;;;;;23.41;34.88;100332.88;10475625;28;20048;-59
2023/08/10 11:23:00;;;;;;;0.90;0.80;;;;;;;23.59;33.93;100327.41;10475322;28;20106;-59
2023/08/10 11:28:02;;;;;;;1.60;1.00;;;;;;;23.33;34.20;100316.00;10475405;28;20037;-59
2023/08/10 11:33:04;;;;;;;2.20;1.15;;;;;;;23.64;34.33;100311.72;10475102;28;20129;-59
2023/08/10 11:38:12;;;;;;;1.48;0.90;;;;;;;23.68;34.08;100312.19;10477967;28;20144;-59
2023/08/10 11:43:15;;;;;;;3.55;1.58;;;;;;;23.69;33.81;100314.72;10483394;28;20531;-59
2023/08/10 11:48:19;;;;;;;1.88;0.90;;;;;;;23.77;33.75;100301.38;10483801;28;20075;-59
2023/08/10 11:53:22;;;;;;;1.38;0.80;;;;;;;23.79;33.29;100301.19;10483051;28;20977;-59
2023/08/10 11:58:32;;;;;;;1.60;0.80;;;;;;;23.86;32.36;100302.22;10482948;28;20048;-59
2023/08/10 12:03:34;;;;;;;2.65;1.13;;;;;;;23.98;32.66;100298.19;10481936;28;20416;-59
2023/08/10 12:08:38;;;;;;;1.95;0.80;;;;;;;24.19;31.98;100291.34;10482866;28;20047;-60
2023/08/10 12:13:49;;;;;;;1.35;0.80;;;;;;;23.85;30.42;100290.69;10482069;28;20319;-59
2023/08/10 12:18:51;;;;;;;1.63;0.93;;;;;;;23.90;30.91;100285.66;10482661;28;20454;-59
2023/08/10 12:23:55;;;;;;;2.08;0.80;;;;;;;24.37;30.77;100285.78;10481041;28;20500;-59
2023/08/10 12:28:57;;;;;;;1.65;0.98;;;;;;;24.45;30.21;100279.59;10482097;28;20040;-59
2023/08/10 12:33:59;;;;;;;2.67;0.90;;;;;;;24.42;30.75;100286.09;10481878;28;20348;-59
2023/08/10 12:39:01;;;;;;;1.95;0.98;;;;;;;24.36;30.33;100293.97;10481737;28;20398;-59
2023/08/10 12:44:04;;;;;;;1.05;0.80;;;;;;;24.50;29.40;100290.59;10480838;28;20135;-59
2023/08/10 12:49:06;;;;;;;0.60;0.60;;;;;;;24.72;29.97;100279.16;10480543;28;20040;-59
2023/08/10 12:54:08;;;;;;;1.40;0.90;;;;;;;24.55;29.99;100278.34;10495893;28;20048;-59
2023/08/10 12:59:10;;;;;;;1.85;0.90;;;;;;;24.56;29.89;100271.16;10462831;28;20036;-59
2023/08/10 13:04:12;;;;;;;2.50;0.98;;;;;;;24.59;29.78;100266.31;10480277;28;20055;-59
2023/08/10 13:09:14;;;;;;;0.82;0.65;;;;;;;24.93;29.60;100271.38;10480190;28;20411;-59
2023/08/10 13:14:16;;;;;;;1.65;0.85;;;;;;;24.96;29.90;100263.81;10494790;28;20419;-59
2023/08/10 13:19:18;;;;;;;1.23;0.90;;;;;;;25.04;29.53;100271.81;10479720;28;20049;-59
2023/08/10 13:24:20;;;;;;;1.80;0.90;;;;;;;24.99;29.24;100284.91;10479093;28;20363;-60
2023/08/10 13:29:22;;;;;;;0.95;0.80;;;;;;;25.19;29.93;100290.63;10494141;28;20530;-60
2023/08/10 13:34:24;;;;;;;2.45;1.30;;;;;;;25.13;29.75;100285.13;10478966;28;20094;-60
2023/08/10 13:39:26;;;;;;;2.03;1.00;;;;;;;24.91;29.23;100284.09;10444264;28;20135;-60
2023/08/10 13:44:28;;;;;;;1.55;0.90;;;;;;;24.80;30.00;100284.47;10478951;28;20060;-60
2023/08/10 13:49:31;;;;;;;1.73;1.05;;;;;;;24.95;30.07;100298.78;10477377;28;20102;-60
2023/08/10 13:54:53;;;;;;;1.08;0.70;;;;;;;25.38;30.21;100286.69;10457384;28;20071;-60
2023/08/10 13:59:54;;;;;;;1.10;0.90;;;;;;;25.50;29.97;100280.75;10492145;28;20048;-60
2023/08/10 14:04:56;;;;;;;1.38;0.88;;;;;;;25.30;29.83;100274.16;10476687;28;20056;-58
2023/08/10 14:09:58;;;;;;;2.13;0.95;;;;;;;25.30;30.04;100263.47;10476655;28;20118;-58
2023/08/10 14:15:00;;;;;;;1.75;1.15;;;;;;;25.27;29.94;100265.63;10477264;28;20044;-58
2023/08/10 14:20:04;;;;;;;1.30;1.00;;;;;;;25.47;30.04;100269.53;10477210;28;20572;-59
2023/08/10 14:25:06;;;;;;;1.98;0.90;;;;;;;25.53;29.93;100266.16;10491953;28;20048;-58
2023/08/10 14:30:09;;;;;;;1.00;0.70;;;;;;;25.50;29.70;100270.03;10477091;28;20044;-58
2023/08/10 14:35:11;;;;;;;2.60;0.95;;;;;;;25.55;29.55;100259.59;10476861;28;20155;-60
2023/08/10 14:40:15;;;;;;;1.30;0.73;;;;;;;25.55;29.69;100248.88;10442546;28;20116;-58
2023/08/10 14:45:17;;;;;;;1.70;0.98;;;;;;;25.45;29.50;100256.31;10458085;28;20106;-58
2023/08/10 14:50:19;;;;;;;4.38;1.20;;;;;;;25.42;29.95;100247.81;10475947;28;20050;-58
2023/08/10 14:55:22;;;;;;;1.95;1.10;;;;;;;25.19;29.01;100242.44;10476106;28;20575;-58
2023/08/10 15:00:25;;;;;;;1.00;0.73;;;;;;;25.03;29.87;100237.19;10475738;28;20175;-58
2023/08/10 15:05:27;;;;;;;2.83;1.10;;;;;;;25.14;30.16;100252.03;10475467;28;20496;-58
2023/08/10 15:10:29;;;;;;;1.15;0.80;;;;;;;25.25;30.45;100249.75;10475816;28;20080;-58
2023/08/10 15:15:31;;;;;;;1.42;0.93;;;;;;;25.41;30.58;100235.44;10475631;28;20400;-58
2023/08/10 15:20:33;;;;;;;1.48;0.93;;;;;;;25.65;30.22;100232.56;10474929;28;20041;-58
2023/08/10 15:25:35;;;;;;;2.45;0.90;;;;;;;25.61;29.80;100242.00;10490527;28;20323;-58
2023/08/10 15:30:38;;;;;;;2.95;1.00;;;;;;;25.45;28.88;100239.41;10475777;28;20500;-58
2023/08/10 15:35:44;;;;;;;7.30;2.08;;;;;;;25.39;28.91;100245.50;10475044;28;20578;-58
2023/08/10 15:40:47;;;;;;;1.10;0.70;;;;;;;25.51;28.86;100247.56;10456599;28;20067;-58
2023/08/10 15:45:50;;;;;;;3.08;1.20;;;;;;;25.54;28.36;100246.38;10474978;28;20139;-58
2023/08/10 15:50:52;;;;;;;1.45;1.00;;;;;;;25.45;28.36;100232.22;10475699;28;20088;-58
2023/08/10 15:55:54;;;;;;;0.80;0.60;;;;;;;25.45;28.47;100229.53;10475050;28;20335;-58
2023/08/10 16:00:56;;;;;;;1.83;1.00;;;;;;;25.45;27.99;100228.72;10474977;28;20602;-59
2023/08/10 16:05:58;;;;;;;1.65;0.95;;;;;;;25.56;28.24;100234.50;10474724;28;20131;-59
2023/08/10 16:11:00;;;;;;;1.48;0.98;;;;;;;25.62;28.25;100239.13;10456461;28;21216;-59
2023/08/10 16:16:04;;;;;;;3.25;1.00;;;;;;;25.66;28.09;100228.88;10474483;28;20049;-60
2023/08/10 16:21:06;;;;;;;1.83;1.00;;;;;;;25.88;28.28;100236.03;10474041;28;20436;-60
2023/08/10 16:26:08;;;;;;;2.90;0.90;;;;;;;25.77;27.68;100242.66;10459725;28;20454;-60
2023/08/10 16:31:10;;;;;;;2.03;1.08;;;;;;;25.49;27.92;100238.88;10481506;28;20098;-60
2023/08/10 16:36:12;;;;;;;2.22;0.98;;;;;;;25.26;29.09;100242.56;10481570;28;20385;-59
2023/08/10 16:41:15;;;;;;;2.85;0.98;;;;;;;25.15;29.16;100246.47;10481162;28;20113;-59
2023/08/10 16:46:17;;;;;;;2.00;0.90;;;;;;;25.11;28.94;100255.88;10480793;28;20471;-59
2023/08/10 16:51:19;;;;;;;2.25;1.00;;;;;;;25.20;29.29;100254.81;10480952;28;20453;-59
2023/08/10 16:56:22;;;;;;;2.08;0.90;;;;;;;25.08;29.41;100264.28;10480168;28;20080;-59
2023/08/10 17:01:24;;;;;;;5.60;1.05;;;;;;;25.03;29.52;100261.28;10480543;28;20140;-59
2023/08/10 17:06:26;;;;;;;0.70;0.52;;;;;;;24.94;29.65;100260.47;10480343;28;20041;-59
2023/08/10 17:11:30;;;;;;;1.63;0.93;;;;;;;24.85;29.84;100261.56;10480130;28;20086;-59
2023/08/10 17:16:32;;;;;;;1.83;0.73;;;;;;;24.97;30.27;100259.31;10461734;28;20212;-59
2023/08/10 17:21:35;;;;;;;1.33;0.70;;;;;;;24.98;30.29;100263.63;10479516;28;20153;-59
2023/08/10 17:26:37;;;;;;;0.85;0.65;;;;;;;24.82;31.30;100271.75;10461173;28;20076;-59
2023/08/10 17:31:39;;;;;;;1.23;0.85;;;;;;;24.74;31.23;100267.28;10479244;28;20094;-59
2023/08/10 17:36:41;;;;;;;1.95;1.20;;;;;;;24.84;31.38;100264.38;10460650;28;20079;-59
2023/08/10 17:41:48;;;;;;;1.17;0.90;;;;;;;24.55;31.12;100259.63;10460670;28;20055;-59
2023/08/10 17:46:50;;;;;;;3.03;1.00;;;;;;;24.27;32.23;100258.41;10479370;28;20123;-59
2023/08/10 17:51:52;;;;;;;1.27;1.00;;;;;;;24.06;32.33;100252.75;10478166;28;20051;-59
2023/08/10 17:56:54;;;;;;;0.85;0.75;;;;;;;23.95;32.83;100261.97;10477894;28;20040;-59
2023/08/10 18:01:56;;;;;;;3.10;1.00;;;;;;;23.89;33.13;100262.63;10477809;28;20058;-60
2023/08/10 18:06:58;;;;;;;1.70;1.00;;;;;;;23.75;33.69;100259.81;10478065;28;20084;-59
2023/08/10 18:12:00;;;;;;;3.03;0.82;;;;;;;23.49;34.18;100270.66;10458676;28;20127;-59
2023/08/10 18:17:03;;;;;;;1.73;1.00;;;;;;;23.25;35.20;100270.56;10477780;28;20036;-59
2023/08/10 18:22:05;;;;;;;1.52;1.00;;;;;;;23.12;36.26;100276.41;10476984;28;20074;-58
2023/08/10 18:27:08;;;;;;;1.25;0.73;;;;;;;22.98;36.97;100273.53;10459281;28;20055;-59
2023/08/10 18:32:11;;;;;;;2.60;1.15;;;;;;;22.76;37.51;100277.63;10476845;28;20822;-59
2023/08/10 18:37:13;;;;;;;2.28;1.20;;;;;;;22.51;38.14;100284.69;10476704;28;20832;-60
2023/08/10 18:42:15;;;;;;;2.38;1.05;;;;;;;22.14;39.08;100281.47;10476377;28;20055;-59
2023/08/10 18:47:18;;;;;;;1.70;0.88;;;;;;;21.82;39.46;100289.19;10476693;28;20048;-59
2023/08/10 18:52:23;;;;;;;2.72;1.25;;;;;;;21.57;39.90;100297.97;10476583;28;20068;-59
2023/08/10 18:57:25;;;;;;;1.58;1.10;;;;;;;21.26;40.79;100293.97;10476590;28;20148;-59
2023/08/10 19:02:27;;;;;;;1.10;0.90;;;;;;;20.92;41.72;100307.06;10475486;28;20106;-59
2023/08/10 19:07:29;;;;;;;2.17;0.80;;;;;;;20.67;42.67;100315.72;10457426;28;20300;-59
2023/08/10 19:12:33;;;;;;;2.67;1.60;;;;;;;20.37;43.70;100318.59;10475352;28;20459;-59
2023/08/10 19:17:38;;;;;;;2.35;0.90;;;;;;;20.09;44.86;100325.66;10456983;28;20459;-59
2023/08/10 19:22:40;;;;;;;3.00;1.52;;;;;;;19.81;44.87;100329.13;10475861;28;20052;-59
2023/08/10 19:27:43;;;;;;;2.55;1.33;;;;;;;19.64;45.21;100330.72;10475782;28;20499;-59
2023/08/10 19:32:51;;;;;;;2.65;0.93;;;;;;;19.48;45.90;100339.19;10457458;28;20538;-59
2023/08/10 19:37:53;;;;;;;1.48;0.95;;;;;;;19.38;46.11;100345.47;10475135;28;20044;-59
2023/08/10 19:42:56;;;;;;;1.67;0.98;;;;;;;19.20;46.45;100345.31;10474868;28;20053;-59
2023/08/10 19:47:58;;;;;;;2.75;1.20;;;;;;;19.06;47.18;100352.78;10475159;28;20143;-60
2023/08/10 19:53:00;;;;;;;1.10;0.82;;;;;;;18.83;48.01;100354.78;10473863;28;20766;-60
2023/08/10 19:58:02;;;;;;;1.83;1.05;;;;;;;18.68;48.44;100358.78;10474901;28;20438;-59
2023/08/10 20:03:05;;;;;;;2.42;1.30;;;;;;;18.49;49.19;100358.66;10483159;28;20135;-59
2023/08/10 20:08:08;;;;;;;1.48;0.90;;;;;;;18.46;49.17;100370.34;10482532;28;20064;-59
2023/08/10 20:13:10;;;;;;;1.00;0.90;;;;;;;18.25;50.04;100371.34;10448095;28;20135;-59
2023/08/10 20:18:12;;;;;;;2.80;1.08;;;;;;;18.15;50.11;100368.63;10482738;28;20366;-59
2023/08/10 20:23:15;;;;;;;3.10;1.30;;;;;;;18.14;50.53;100371.38;10481964;28;20591;-59
2023/08/10 20:28:19;;;;;;;2.80;1.30;;;;;;;18.05;50.97;100380.09;10496699;28;20143;-59
2023/08/10 20:33:21;;;;;;;1.67;1.00;;;;;;;18.02;50.94;100383.00;10463197;28;20130;-60
2023/08/10 20:38:23;;;;;;;1.48;1.10;;;;;;;17.90;51.32;100384.00;10481678;28;20688;-59
2023/08/10 20:43:25;;;;;;;4.25;1.20;;;;;;;17.71;51.65;100385.53;10481152;28;20056;-59
2023/08/10 20:48:28;;;;;;;2.15;1.10;;;;;;;17.63;52.31;100382.69;10481053;28;20052;-59
2023/08/10 20:53:31;;;;;;;1.42;1.02;;;;;;;17.45;52.12;100383.34;10480548;28;20068;-59
2023/08/10 20:58:33;;;;;;;3.78;1.10;;;;;;;17.42;52.46;100394.16;10480547;28;20052;-59
2023/08/10 21:03:37;;;;;;;1.73;0.90;;;;;;;17.39;52.67;100395.25;10480316;28;20052;-59
2023/08/10 21:08:40;;;;;;;2.25;1.17;;;;;;;17.07;53.15;100390.81;10480303;28;20055;-59
2023/08/10 21:13:42;;;;;;;4.13;1.45;;;;;;;16.99;53.60;100394.06;10479696;28;20063;-59
2023/08/10 21:18:45;;;;;;;2.53;1.10;;;;;;;17.02;53.93;100394.66;10480300;28;20567;-59
2023/08/10 21:23:47;;;;;;;1.52;0.93;;;;;;;16.94;54.13;100391.78;10479249;28;20937;-59
2023/08/10 21:28:49;;;;;;;6.05;1.25;;;;;;;16.79;54.44;100405.38;10479301;28;20507;-59
2023/08/10 21:33:51;;;;;;;3.08;1.50;;;;;;;16.75;54.84;100411.84;10478838;28;20041;-59
2023/08/10 21:38:53;;;;;;;1.33;0.80;;;;;;;16.51;55.10;100419.03;10479328;28;20417;-59
2023/08/10 21:43:55;;;;;;;1.30;0.85;;;;;;;16.40;55.67;100426.88;10478684;28;20502;-59
2023/08/10 21:48:57;;;;;;;4.25;1.70;;;;;;;16.39;55.69;100426.03;10479092;28;20068;-59
2023/08/10 21:54:00;;;;;;;1.98;1.20;;;;;;;16.37;55.58;100421.81;10478429;28;20048;-59
2023/08/10 21:59:02;;;;;;;1.77;1.13;;;;;;;16.37;55.90;100429.75;10477700;28;20137;-59
2023/08/10 22:04:04;;;;;;;1.52;1.08;;;;;;;16.32;55.74;100426.63;10457391;28;20052;-59
2023/08/10 22:09:07;;;;;;;2.13;1.20;;;;;;;16.23;56.24;100425.50;10456997;28;20546;-59
2023/08/10 22:14:09;;;;;;;2.85;1.02;;;;;;;16.26;56.50;100435.00;10470648;28;20499;-59
2023/08/10 22:19:11;;;;;;;4.00;1.15;;;;;;;16.20;56.51;100431.84;10486725;28;20380;-59
2023/08/10 22:24:13;;;;;;;1.38;1.00;;;;;;;16.18;56.54;100428.50;10474688;28;20056;-59
2023/08/10 22:29:15;;;;;;;5.07;1.27;;;;;;;15.91;57.25;100425.28;10468206;28;20054;-59
2023/08/10 22:34:17;;;;;;;2.03;1.10;;;;;;;15.72;57.25;100432.84;10471658;28;20129;-59
2023/08/10 22:39:19;;;;;;;2.55;1.60;;;;;;;15.60;57.57;100440.81;10472203;28;20048;-59
2023/08/10 22:44:21;;;;;;;2.13;1.20;;;;;;;15.08;58.17;100431.31;10490554;28;20307;-59
2023/08/10 22:49:24;;;;;;;2.88;1.52;;;;;;;15.23;58.27;100443.41;10475525;28;20044;-59
2023/08/10 22:54:26;;;;;;;3.05;0.90;;;;;;;15.32;58.37;100444.56;10472615;28;20048;-59
2023/08/10 22:59:28;;;;;;;2.95;1.45;;;;;;;15.31;58.29;100443.72;10491013;28;20117;-59
2023/08/10 23:04:30;;;;;;;3.38;1.30;;;;;;;15.32;58.65;100449.84;10475886;28;20101;-59
2023/08/10 23:09:34;;;;;;;2.30;1.25;;;;;;;15.31;58.56;100448.97;10475660;28;20552;-59
2023/08/10 23:14:36;;;;;;;2.35;1.10;;;;;;;15.33;58.73;100452.34;10490815;28;20523;-59